Time;durP1;ratioP1;P1;durP2;ratioP2;P2;SDS_P1;SDS_P2;PMS_P1;PMS_P2;Temp;Humidity;BMP_temperature;BMP_pressure;BME280_temperature;BME280_humidity;BME280_pressure;Samples;Min_cycle;Max_cycle;Signal;HPM_P1;HPM_P2
2022/10/16 00:00:39;;;;;;;0.30;0.30;;;13.20;99.90;;;;;;5013820;28;20895;-71
2022/10/16 00:03:05;;;;;;;0.30;0.30;;;13.20;99.90;;;;;;5013656;28;20472;-71
2022/10/16 00:05:31;;;;;;;0.30;0.30;;;13.40;99.90;;;;;;5014049;28;20402;-69
2022/10/16 00:07:57;;;;;;;0.30;0.30;;;13.40;99.90;;;;;;5013925;28;20426;-69
2022/10/16 00:10:23;;;;;;;0.50;0.50;;;13.40;99.90;;;;;;5013965;28;20421;-71
2022/10/16 00:12:49;;;;;;;1.33;0.40;;;13.50;99.90;;;;;;5014145;28;20254;-69
2022/10/16 00:15:15;;;;;;;0.30;0.30;;;13.50;99.90;;;;;;5014043;28;20399;-70
2022/10/16 00:17:40;;;;;;;0.30;0.30;;;13.40;99.90;;;;;;5013735;28;20207;-71
2022/10/16 00:20:06;;;;;;;0.97;0.83;;;13.40;99.90;;;;;;5013679;28;20449;-70
2022/10/16 00:22:33;;;;;;;0.40;0.40;;;13.40;99.90;;;;;;5013865;28;20168;-71
2022/10/16 00:24:58;;;;;;;0.50;0.50;;;13.50;99.90;;;;;;5013864;28;20406;-71
2022/10/16 00:27:24;;;;;;;0.70;0.60;;;13.50;99.90;;;;;;5013797;28;20946;-69
2022/10/16 00:29:51;;;;;;;0.93;0.60;;;13.50;99.90;;;;;;5013516;28;20187;-69
2022/10/16 00:32:18;;;;;;;0.97;0.97;;;13.40;99.90;;;;;;5013721;28;20671;-71
2022/10/16 00:34:43;;;;;;;1.00;1.00;;;13.30;99.90;;;;;;5013717;28;20407;-71
2022/10/16 00:37:09;;;;;;;0.50;0.50;;;13.30;99.90;;;;;;5013533;28;20475;-71
2022/10/16 00:39:35;;;;;;;0.80;0.40;;;13.40;99.90;;;;;;5013443;28;20409;-71
2022/10/16 00:42:00;;;;;;;0.40;0.40;;;13.40;99.90;;;;;;5013762;28;20168;-70
2022/10/16 00:44:46;;;;;;;0.70;0.70;;;13.50;99.90;;;;;;5013683;28;20202;-69
2022/10/16 00:47:18;;;;;;;0.50;0.50;;;13.60;99.90;;;;;;5013556;28;20207;-69
2022/10/16 00:49:44;;;;;;;0.70;0.60;;;13.50;99.90;;;;;;5013545;28;20896;-70
2022/10/16 00:52:10;;;;;;;0.50;0.40;;;13.60;99.90;;;;;;5013631;28;20410;-69
2022/10/16 00:54:36;;;;;;;0.30;0.30;;;13.60;99.90;;;;;;5013665;28;20770;-70
2022/10/16 00:57:05;;;;;;;0.60;0.60;;;13.70;99.90;;;;;;5013504;28;20464;-71
2022/10/16 00:59:34;;;;;;;1.33;1.23;;;13.70;99.90;;;;;;5013509;28;20174;-69
2022/10/16 01:02:00;;;;;;;0.80;0.80;;;13.60;99.90;;;;;;5013513;28;20420;-71
2022/10/16 01:04:39;;;;;;;2.20;1.60;;;13.50;99.90;;;;;;5013463;28;20469;-72
2022/10/16 01:07:25;;;;;;;0.60;0.60;;;13.50;99.90;;;;;;5013513;28;20466;-71
2022/10/16 01:10:46;;;;;;;0.30;0.30;;;13.50;99.90;;;;;;5013224;28;20397;-72
2022/10/16 01:13:53;;;;;;;0.30;0.30;;;13.50;99.90;;;;;;4955290;28;20431;-72
2022/10/16 01:16:27;;;;;;;0.30;0.30;;;13.40;99.90;;;;;;4975973;28;20566;-69
2022/10/16 01:19:01;;;;;;;0.40;0.40;;;13.40;99.90;;;;;;4975783;28;20415;-69
2022/10/16 01:21:36;;;;;;;0.40;0.40;;;13.40;99.90;;;;;;5000815;28;20480;-69
2022/10/16 01:24:38;;;;;;;0.40;0.40;;;13.30;99.90;;;;;;5017145;28;20757;-70
2022/10/16 01:27:27;;;;;;;0.30;0.30;;;13.20;99.90;;;;;;5016914;28;20429;-70
2022/10/16 01:30:19;;;;;;;0.60;0.60;;;13.20;99.90;;;;;;5016695;28;20402;-69
2022/10/16 01:33:11;;;;;;;0.60;0.60;;;13.20;99.90;;;;;;5012996;28;20411;-69
2022/10/16 01:35:41;;;;;;;0.30;0.30;;;13.20;99.90;;;;;;5001069;28;20422;-70
2022/10/16 01:38:10;;;;;;;0.77;0.77;;;13.20;99.90;;;;;;5016757;28;20521;-71
2022/10/16 01:40:39;;;;;;;0.90;0.50;;;13.30;99.90;;;;;;5016411;28;20772;-69
2022/10/16 01:43:10;;;;;;;0.53;0.53;;;13.20;99.90;;;;;;5016555;28;20909;-71
2022/10/16 01:45:36;;;;;;;0.67;0.67;;;13.30;99.90;;;;;;5016635;28;20488;-71
2022/10/16 01:48:07;;;;;;;0.30;0.30;;;13.30;99.90;;;;;;5016449;28;20437;-68
2022/10/16 01:50:37;;;;;;;1.53;1.33;;;13.30;99.90;;;;;;5016550;28;20402;-70
2022/10/16 01:53:05;;;;;;;0.30;0.30;;;13.40;99.90;;;;;;5016580;28;20791;-71
2022/10/16 01:55:39;;;;;;;0.40;0.40;;;13.40;99.90;;;;;;5016766;28;20406;-70
2022/10/16 01:58:07;;;;;;;0.50;0.50;;;13.30;99.90;;;;;;5016398;28;20458;-70
2022/10/16 02:00:36;;;;;;;0.50;0.50;;;13.30;99.90;;;;;;5016212;28;20429;-71
2022/10/16 02:03:04;;;;;;;0.30;0.30;;;13.20;99.90;;;;;;5016374;28;20413;-68
2022/10/16 02:05:40;;;;;;;0.40;0.40;;;13.30;99.90;;;;;;5016364;28;20877;-69
2022/10/16 02:08:05;;;;;;;0.40;0.40;;;13.40;99.90;;;;;;5016339;28;20448;-68
2022/10/16 02:10:32;;;;;;;0.30;0.30;;;13.40;99.90;;;;;;5015932;28;20410;-69
2022/10/16 02:13:07;;;;;;;0.30;0.30;;;13.50;99.90;;;;;;5016134;28;20172;-70
2022/10/16 02:15:33;;;;;;;0.77;0.40;;;13.50;99.90;;;;;;5016210;28;20406;-69
2022/10/16 02:17:59;;;;;;;0.67;0.57;;;13.50;99.90;;;;;;5015770;28;20470;-71
2022/10/16 02:20:32;;;;;;;0.50;0.50;;;13.50;99.90;;;;;;5015788;28;20645;-69
2022/10/16 02:22:59;;;;;;;0.60;0.60;;;13.40;99.90;;;;;;5015949;28;20258;-69
2022/10/16 02:25:34;;;;;;;0.40;0.40;;;13.40;99.90;;;;;;5015494;28;20837;-71
2022/10/16 02:28:28;;;;;;;0.30;0.30;;;13.40;99.90;;;;;;5014546;28;20460;-71
2022/10/16 02:31:01;;;;;;;0.30;0.30;;;13.50;99.90;;;;;;5015641;28;20407;-70
2022/10/16 02:33:28;;;;;;;0.53;0.53;;;13.50;99.90;;;;;;5015677;28;20429;-71
2022/10/16 02:35:56;;;;;;;0.40;0.40;;;13.40;99.90;;;;;;5015597;28;20407;-68
2022/10/16 02:38:23;;;;;;;0.60;0.40;;;13.30;99.90;;;;;;5015519;28;20429;-71
2022/10/16 02:40:48;;;;;;;0.40;0.40;;;13.40;99.90;;;;;;5015346;28;20494;-69
2022/10/16 02:43:14;;;;;;;0.30;0.30;;;13.40;99.90;;;;;;5015566;28;20944;-68
2022/10/16 02:45:40;;;;;;;0.40;0.40;;;13.40;99.90;;;;;;5015516;28;20187;-68
2022/10/16 02:48:06;;;;;;;0.40;0.40;;;13.40;99.90;;;;;;5015376;28;20473;-71
2022/10/16 02:50:32;;;;;;;0.30;0.30;;;13.40;99.90;;;;;;5015282;28;20413;-69
2022/10/16 02:52:58;;;;;;;0.40;0.40;;;13.20;99.90;;;;;;5015468;28;20484;-68
2022/10/16 02:55:23;;;;;;;0.83;0.60;;;13.20;99.90;;;;;;5015378;28;20171;-69
2022/10/16 02:57:49;;;;;;;0.50;0.50;;;13.10;99.90;;;;;;5015028;28;20199;-69
2022/10/16 03:00:17;;;;;;;0.37;0.37;;;13.20;99.90;;;;;;5015140;28;20529;-70
2022/10/16 03:02:43;;;;;;;0.30;0.30;;;13.20;99.90;;;;;;5015367;28;20171;-72
2022/10/16 03:05:10;;;;;;;0.40;0.40;;;13.20;99.90;;;;;;5015126;28;20476;-68
2022/10/16 03:07:35;;;;;;;0.40;0.40;;;13.20;99.90;;;;;;5014911;28;20507;-72
2022/10/16 03:10:01;;;;;;;0.40;0.40;;;13.30;99.90;;;;;;5014785;28;20942;-71
2022/10/16 03:12:28;;;;;;;0.70;0.57;;;13.20;99.90;;;;;;5015300;28;20224;-71
2022/10/16 03:14:53;;;;;;;0.40;0.40;;;13.30;99.90;;;;;;5013660;28;20183;-71
2022/10/16 03:17:19;;;;;;;0.30;0.30;;;13.30;99.90;;;;;;5014870;28;20461;-72
2022/10/16 03:19:45;;;;;;;0.33;0.33;;;13.20;99.90;;;;;;5014738;28;20177;-68
2022/10/16 03:22:10;;;;;;;0.30;0.30;;;13.20;99.90;;;;;;5015038;28;20167;-70
2022/10/16 03:24:36;;;;;;;0.40;0.40;;;13.20;99.90;;;;;;5014837;28;20620;-70
2022/10/16 03:27:02;;;;;;;0.30;0.30;;;13.30;99.90;;;;;;5014771;28;20860;-71
2022/10/16 03:29:29;;;;;;;0.40;0.40;;;13.30;99.90;;;;;;5014672;28;20171;-69
2022/10/16 03:31:55;;;;;;;0.40;0.40;;;13.40;99.90;;;;;;5014765;28;20438;-72
2022/10/16 03:34:21;;;;;;;0.53;0.50;;;13.50;99.90;;;;;;5014670;28;20795;-70
2022/10/16 03:36:48;;;;;;;0.40;0.40;;;13.40;99.90;;;;;;5013843;28;20544;-69
2022/10/16 03:39:14;;;;;;;0.30;0.30;;;13.50;99.90;;;;;;5014463;28;20450;-70
2022/10/16 03:41:39;;;;;;;0.63;0.60;;;13.50;99.90;;;;;;5014567;28;20800;-72
2022/10/16 03:44:05;;;;;;;0.40;0.40;;;13.50;99.90;;;;;;5014393;28;20177;-69
2022/10/16 03:46:31;;;;;;;0.40;0.40;;;13.40;99.90;;;;;;5014304;28;20206;-68
2022/10/16 03:48:56;;;;;;;21.50;9.50;;;13.40;99.90;;;;;;5014115;28;20434;-71
2022/10/16 03:51:25;;;;;;;1.60;1.03;;;13.40;99.90;;;;;;5014442;28;20178;-69
2022/10/16 03:53:51;;;;;;;1.30;0.93;;;13.30;99.90;;;;;;5014351;28;20203;-69
2022/10/16 03:56:17;;;;;;;3.90;1.53;;;13.30;99.90;;;;;;5014270;28;20474;-69
2022/10/16 03:58:43;;;;;;;1.83;1.53;;;13.30;99.90;;;;;;5014227;28;20183;-70
2022/10/16 04:01:08;;;;;;;1.07;0.97;;;13.40;99.90;;;;;;5012769;28;20910;-71
2022/10/16 04:03:34;;;;;;;0.30;0.30;;;13.40;99.90;;;;;;5014187;28;20182;-68
2022/10/16 04:05:59;;;;;;;1.13;1.00;;;13.40;99.90;;;;;;5014153;28;20174;-69
2022/10/16 04:08:25;;;;;;;1.03;1.03;;;13.50;99.90;;;;;;5014049;28;20199;-71
2022/10/16 04:10:51;;;;;;;0.40;0.40;;;13.50;99.90;;;;;;5013796;28;20192;-68
2022/10/16 04:13:16;;;;;;;0.50;0.40;;;13.50;99.90;;;;;;5013934;28;20202;-69
2022/10/16 04:15:44;;;;;;;0.40;0.40;;;13.50;99.90;;;;;;5014235;28;20583;-69
2022/10/16 04:18:11;;;;;;;0.40;0.40;;;13.50;99.90;;;;;;5013706;28;20206;-68
2022/10/16 04:20:37;;;;;;;0.50;0.50;;;13.50;99.90;;;;;;5013807;28;20941;-69
2022/10/16 04:23:02;;;;;;;83.10;2.00;;;13.40;99.90;;;;;;5013949;28;20430;-71
2022/10/16 04:25:28;;;;;;;0.40;0.40;;;13.40;99.90;;;;;;5013954;28;20503;-71
2022/10/16 04:27:54;;;;;;;0.30;0.30;;;13.40;99.90;;;;;;5013740;28;20202;-69
2022/10/16 04:30:21;;;;;;;0.50;0.50;;;13.40;99.90;;;;;;5013736;28;20402;-72
2022/10/16 04:32:50;;;;;;;0.60;0.60;;;13.40;99.90;;;;;;5013748;28;20455;-70
2022/10/16 04:35:19;;;;;;;0.30;0.30;;;13.50;99.90;;;;;;5013851;28;20865;-69
2022/10/16 04:37:45;;;;;;;0.50;0.50;;;13.50;99.90;;;;;;5013747;28;20461;-68
2022/10/16 04:40:11;;;;;;;0.40;0.40;;;13.50;99.90;;;;;;5013683;28;20757;-72
2022/10/16 04:42:36;;;;;;;0.40;0.40;;;13.50;99.90;;;;;;5013778;28;20399;-71
2022/10/16 04:45:03;;;;;;;2.40;2.30;;;13.50;99.90;;;;;;5013650;28;20178;-70
2022/10/16 04:47:29;;;;;;;0.70;0.70;;;13.50;99.90;;;;;;5014098;28;20565;-72
2022/10/16 04:49:54;;;;;;;0.70;0.70;;;13.50;99.90;;;;;;5017570;28;20413;-72
2022/10/16 04:52:21;;;;;;;0.40;0.40;;;13.50;99.90;;;;;;5017701;28;20169;-70
2022/10/16 04:54:47;;;;;;;0.30;0.30;;;13.40;99.90;;;;;;5017514;28;20167;-67
2022/10/16 04:57:13;;;;;;;0.40;0.40;;;13.40;99.90;;;;;;5017363;28;20985;-71
2022/10/16 04:59:38;;;;;;;0.87;0.87;;;13.40;99.90;;;;;;5017266;28;20174;-71
2022/10/16 05:02:04;;;;;;;0.40;0.40;;;13.40;99.90;;;;;;5017503;28;20812;-68
2022/10/16 05:04:29;;;;;;;0.40;0.40;;;13.40;99.90;;;;;;5017564;28;20175;-71
2022/10/16 05:06:55;;;;;;;0.30;0.30;;;13.40;99.90;;;;;;5017431;28;20198;-69
2022/10/16 05:09:21;;;;;;;0.73;0.73;;;13.40;99.90;;;;;;5017099;28;20180;-68
2022/10/16 05:11:47;;;;;;;0.30;0.30;;;13.50;99.90;;;;;;5017206;28;20178;-68
2022/10/16 05:14:12;;;;;;;0.40;0.40;;;13.50;99.90;;;;;;5017179;28;20414;-71
2022/10/16 05:16:38;;;;;;;0.40;0.40;;;13.70;99.90;;;;;;5017208;28;20203;-68
2022/10/16 05:19:04;;;;;;;0.30;0.30;;;13.50;99.90;;;;;;5016938;28;20568;-69
2022/10/16 05:21:29;;;;;;;0.50;0.50;;;13.50;99.90;;;;;;5017124;28;20530;-68
2022/10/16 05:23:55;;;;;;;0.93;0.93;;;13.50;99.90;;;;;;5015779;28;20172;-70
2022/10/16 05:26:21;;;;;;;0.83;0.60;;;13.60;99.90;;;;;;5016956;28;20225;-68
2022/10/16 05:28:47;;;;;;;1.37;1.27;;;13.50;99.90;;;;;;5016855;28;20200;-69
2022/10/16 05:31:12;;;;;;;0.67;0.67;;;13.50;99.90;;;;;;5016927;28;20410;-71
2022/10/16 05:33:38;;;;;;;0.30;0.30;;;13.50;99.90;;;;;;5015699;28;20569;-68
2022/10/16 05:36:07;;;;;;;0.40;0.40;;;13.50;99.90;;;;;;5016727;28;20226;-69
2022/10/16 05:38:33;;;;;;;0.50;0.50;;;13.50;99.90;;;;;;5016730;28;20188;-68
2022/10/16 05:40:59;;;;;;;0.57;0.57;;;13.50;99.90;;;;;;5016579;28;20729;-71
2022/10/16 05:43:24;;;;;;;0.50;0.50;;;13.50;99.90;;;;;;5016505;28;20437;-70
2022/10/16 05:45:57;;;;;;;0.40;0.37;;;13.50;99.90;;;;;;5015296;28;20197;-68
2022/10/16 05:48:23;;;;;;;0.47;0.47;;;13.50;99.90;;;;;;5014364;28;20207;-70
2022/10/16 05:50:56;;;;;;;0.60;0.60;;;13.50;99.90;;;;;;5016427;28;20833;-70
2022/10/16 05:53:25;;;;;;;0.30;0.30;;;13.60;99.90;;;;;;5016911;28;20752;-69
2022/10/16 05:55:55;;;;;;;0.40;0.40;;;13.70;99.90;;;;;;5016666;28;20924;-70
2022/10/16 05:58:21;;;;;;;0.40;0.40;;;13.70;99.90;;;;;;5015983;28;20774;-70
2022/10/16 06:00:55;;;;;;;0.50;0.50;;;13.60;99.90;;;;;;5014136;28;20751;-70
2022/10/16 06:03:20;;;;;;;0.40;0.40;;;13.70;99.90;;;;;;5015137;28;20820;-69
2022/10/16 06:05:46;;;;;;;0.30;0.30;;;13.70;99.90;;;;;;5015097;28;20410;-68
2022/10/16 06:08:12;;;;;;;0.30;0.30;;;13.70;99.90;;;;;;5015420;28;20252;-71
2022/10/16 06:10:37;;;;;;;0.37;0.37;;;13.70;99.90;;;;;;5015324;28;20225;-68
2022/10/16 06:13:03;;;;;;;0.40;0.40;;;13.70;99.90;;;;;;5016347;28;20529;-68
2022/10/16 06:15:29;;;;;;;0.30;0.30;;;13.80;99.90;;;;;;5016427;28;20411;-69
2022/10/16 06:17:54;;;;;;;0.40;0.40;;;13.80;99.90;;;;;;5015148;28;20203;-65
2022/10/16 06:20:20;;;;;;;0.40;0.40;;;13.80;99.90;;;;;;5016181;28;20890;-66
2022/10/16 06:22:46;;;;;;;0.30;0.30;;;14.10;99.90;;;;;;5016189;28;20169;-65
2022/10/16 06:25:11;;;;;;;0.70;0.40;;;14.40;99.90;;;;;;5016253;28;20168;-65
2022/10/16 06:27:40;;;;;;;0.70;0.70;;;14.80;99.90;;;;;;5015857;28;20195;-72
2022/10/16 06:30:06;;;;;;;0.77;0.70;;;15.10;99.90;;;;;;5015791;28;20179;-70
2022/10/16 06:32:32;;;;;;;0.93;0.90;;;15.30;99.90;;;;;;5015943;28;20488;-69
2022/10/16 06:34:58;;;;;;;0.33;0.33;;;15.30;99.90;;;;;;5015838;28;20444;-68
2022/10/16 06:37:24;;;;;;;1.00;0.80;;;15.20;99.90;;;;;;5014246;28;20210;-69
2022/10/16 06:39:52;;;;;;;0.50;0.50;;;15.10;99.90;;;;;;5014476;28;20189;-70
2022/10/16 06:42:18;;;;;;;0.40;0.40;;;15.10;99.90;;;;;;5015944;28;20419;-70
2022/10/16 06:44:44;;;;;;;0.40;0.40;;;15.00;99.90;;;;;;5015644;28;20491;-69
2022/10/16 06:47:10;;;;;;;0.30;0.30;;;14.90;99.90;;;;;;5015418;28;20454;-68
2022/10/16 06:49:35;;;;;;;1.00;1.00;;;14.90;99.90;;;;;;5015612;28;20440;-68
2022/10/16 06:52:01;;;;;;;0.40;0.40;;;14.80;99.90;;;;;;5015831;28;20221;-70
2022/10/16 06:54:27;;;;;;;0.83;0.83;;;14.70;99.90;;;;;;5015641;28;20168;-69
2022/10/16 06:56:54;;;;;;;1.10;1.00;;;14.70;99.90;;;;;;5015566;28;20469;-70
2022/10/16 06:59:20;;;;;;;0.73;0.73;;;14.70;99.90;;;;;;5014289;28;20415;-70
2022/10/16 07:01:46;;;;;;;0.30;0.30;;;14.70;99.90;;;;;;5015278;28;20811;-70
2022/10/16 07:04:12;;;;;;;1.23;1.10;;;14.70;99.90;;;;;;5015125;28;20466;-69
2022/10/16 07:06:38;;;;;;;0.40;0.40;;;14.40;99.90;;;;;;5015308;28;20403;-70
2022/10/16 07:09:06;;;;;;;1.83;1.73;;;14.80;99.90;;;;;;5015303;28;20178;-70
2022/10/16 07:11:32;;;;;;;2.60;1.70;;;14.90;99.90;;;;;;5015415;28;20564;-69
2022/10/16 07:13:58;;;;;;;1.10;1.00;;;14.80;99.90;;;;;;5015609;28;20482;-70
2022/10/16 07:16:27;;;;;;;1.43;0.73;;;14.90;99.90;;;;;;5014833;28;20560;-70
2022/10/16 07:18:58;;;;;;;1.07;1.00;;;14.90;99.90;;;;;;5014917;28;20407;-70
2022/10/16 07:21:28;;;;;;;0.90;0.90;;;14.90;99.90;;;;;;5015218;28;20402;-70
2022/10/16 07:24:00;;;;;;;2.17;1.10;;;14.90;99.90;;;;;;5015179;28;20399;-69
2022/10/16 07:26:27;;;;;;;1.37;1.27;;;15.00;99.90;;;;;;5015341;28;20403;-69
2022/10/16 07:28:53;;;;;;;4.40;4.10;;;15.10;99.90;;;;;;5014854;28;20420;-70
2022/10/16 07:31:20;;;;;;;2.03;1.43;;;15.20;99.90;;;;;;5014834;28;20750;-69
2022/10/16 07:33:48;;;;;;;0.70;0.70;;;15.40;99.90;;;;;;5014974;28;20335;-69
2022/10/16 07:36:18;;;;;;;1.37;1.37;;;15.70;99.90;;;;;;5014948;28;20445;-70
2022/10/16 07:38:44;;;;;;;1.50;0.80;;;15.90;99.90;;;;;;5015170;28;20823;-71
2022/10/16 07:41:13;;;;;;;3.20;2.03;;;16.40;99.90;;;;;;5014941;28;20442;-70
2022/10/16 07:43:38;;;;;;;0.60;0.60;;;17.50;99.90;;;;;;5014718;28;20423;-67
2022/10/16 07:46:04;;;;;;;0.80;0.80;;;18.40;99.90;;;;;;5014287;28;20433;-70
2022/10/16 07:48:33;;;;;;;0.90;0.90;;;19.50;99.90;;;;;;5014706;28;20433;-69
2022/10/16 07:51:00;;;;;;;0.83;0.83;;;21.10;99.90;;;;;;5014666;28;20175;-71
2022/10/16 07:53:26;;;;;;;0.40;0.40;;;22.80;99.90;;;;;;5014644;28;20754;-69
2022/10/16 07:55:52;;;;;;;0.77;0.77;;;24.00;97.10;;;;;;5014297;28;20413;-71
2022/10/16 07:58:18;;;;;;;0.93;0.50;;;25.00;94.20;;;;;;5014236;28;20457;-69
2022/10/16 08:00:43;;;;;;;0.50;0.50;;;26.00;92.50;;;;;;5014392;28;20167;-69
2022/10/16 08:03:09;;;;;;;0.70;0.70;;;27.40;90.80;;;;;;5013261;28;20425;-70
2022/10/16 08:05:35;;;;;;;0.40;0.40;;;28.80;81.30;;;;;;5014612;28;20176;-70
2022/10/16 08:08:03;;;;;;;1.30;1.20;;;30.10;75.00;;;;;;5014063;28;20594;-70
2022/10/16 08:10:29;;;;;;;0.90;0.50;;;31.30;69.90;;;;;;5013876;28;20172;-70
2022/10/16 08:12:55;;;;;;;0.47;0.47;;;32.10;65.20;;;;;;5014147;28;20452;-70
2022/10/16 08:15:21;;;;;;;1.83;0.80;;;32.30;61.00;;;;;;5014126;28;20172;-72
2022/10/16 08:18:00;;;;;;;0.57;0.53;;;32.70;60.30;;;;;;5014286;28;20221;-69
2022/10/16 08:20:28;;;;;;;0.50;0.50;;;33.10;56.20;;;;;;5013844;28;20565;-71
2022/10/16 08:22:54;;;;;;;0.50;0.50;;;32.20;55.70;;;;;;5011975;28;20981;-71
2022/10/16 08:25:21;;;;;;;0.47;0.43;;;31.10;58.50;;;;;;5013541;28;20445;-71
2022/10/16 08:27:47;;;;;;;1.43;0.50;;;29.90;60.00;;;;;;5011999;28;20533;-68
2022/10/16 08:30:13;;;;;;;1.20;0.77;;;28.70;63.60;;;;;;5013241;28;20497;-67
2022/10/16 08:32:39;;;;;;;0.53;0.53;;;27.70;66.20;;;;;;5013871;28;20179;-70
2022/10/16 08:35:05;;;;;;;0.60;0.60;;;27.60;70.30;;;;;;5013795;28;20414;-69
2022/10/16 08:37:32;;;;;;;2.03;1.93;;;28.60;69.80;;;;;;5013521;28;21032;-67
2022/10/16 08:39:58;;;;;;;1.13;1.03;;;29.90;66.00;;;;;;5013572;28;20637;-71
2022/10/16 08:42:33;;;;;;;0.93;0.60;;;31.20;61.30;;;;;;5013713;28;20438;-70
2022/10/16 08:45:23;;;;;;;0.40;0.40;;;32.40;58.50;;;;;;5013695;28;20476;-68
2022/10/16 08:47:54;;;;;;;0.40;0.40;;;33.50;55.30;;;;;;5013598;28;20473;-71
2022/10/16 08:50:27;;;;;;;0.33;0.33;;;34.30;53.30;;;;;;5012208;28;20896;-71
2022/10/16 08:52:54;;;;;;;1.43;1.30;;;34.50;53.00;;;;;;5013823;28;20461;-71
2022/10/16 08:55:41;;;;;;;1.40;1.30;;;33.70;52.90;;;;;;5013508;28;20417;-71
2022/10/16 08:58:18;;;;;;;0.67;0.67;;;32.40;54.20;;;;;;5013261;28;20955;-69
2022/10/16 09:00:48;;;;;;;0.60;0.50;;;32.30;54.60;;;;;;5011858;28;20402;-71
2022/10/16 09:03:21;;;;;;;0.70;0.70;;;33.00;53.80;;;;;;5013756;28;20433;-72
2022/10/16 09:06:06;;;;;;;0.70;0.70;;;33.90;52.10;;;;;;5014025;28;20485;-73
2022/10/16 09:09:01;;;;;;;0.50;0.50;;;34.60;50.40;;;;;;5014062;28;20422;-71
2022/10/16 09:11:52;;;;;;;0.60;0.60;;;34.10;50.80;;;;;;5004271;28;20492;-70
2022/10/16 09:14:37;;;;;;;1.23;0.53;;;33.20;51.80;;;;;;5012299;28;20406;-68
2022/10/16 09:17:14;;;;;;;0.50;0.50;;;32.50;53.30;;;;;;5012490;28;20540;-70
2022/10/16 09:20:24;;;;;;;0.50;0.40;;;32.10;52.50;;;;;;5010741;28;20406;-68
2022/10/16 09:23:00;;;;;;;0.40;0.40;;;32.60;50.80;;;;;;5013419;28;20868;-70
2022/10/16 09:25:25;;;;;;;0.40;0.30;;;33.50;50.20;;;;;;5012538;28;20437;-71
2022/10/16 09:27:53;;;;;;;0.60;0.60;;;34.10;50.30;;;;;;5011923;28;20461;-71
2022/10/16 09:30:21;;;;;;;0.60;0.50;;;34.60;49.00;;;;;;5012648;28;20175;-72
2022/10/16 09:32:51;;;;;;;0.60;0.50;;;35.00;48.90;;;;;;5011516;28;20463;-71
2022/10/16 09:35:22;;;;;;;0.40;0.40;;;35.40;48.10;;;;;;5014061;28;20456;-70
2022/10/16 09:37:51;;;;;;;0.67;0.67;;;35.50;46.80;;;;;;5016533;28;20511;-70
2022/10/16 09:40:30;;;;;;;0.70;0.57;;;34.60;47.30;;;;;;5016796;28;20803;-71
2022/10/16 09:43:23;;;;;;;0.50;0.47;;;34.30;47.40;;;;;;5017035;28;20417;-72
2022/10/16 09:46:04;;;;;;;0.50;0.50;;;34.50;47.00;;;;;;5016924;28;20430;-70
2022/10/16 09:48:57;;;;;;;1.97;0.50;;;34.80;46.90;;;;;;5016660;28;20766;-71
2022/10/16 09:51:26;;;;;;;0.60;0.50;;;35.10;46.40;;;;;;5014873;28;20418;-70
2022/10/16 09:54:01;;;;;;;0.40;0.40;;;34.30;49.70;;;;;;5016879;28;20418;-71
2022/10/16 09:56:41;;;;;;;0.40;0.40;;;33.00;51.80;;;;;;5016898;28;20449;-71
2022/10/16 09:59:16;;;;;;;0.40;0.40;;;32.00;51.80;;;;;;5016603;28;20386;-71
2022/10/16 10:01:53;;;;;;;0.80;0.67;;;31.10;55.90;;;;;;5014597;28;20918;-73
2022/10/16 10:04:20;;;;;;;0.50;0.50;;;30.00;57.70;;;;;;5016765;28;20497;-71
2022/10/16 10:06:55;;;;;;;0.60;0.60;;;29.10;62.50;;;;;;5014873;28;20430;-71
2022/10/16 10:09:22;;;;;;;0.40;0.40;;;28.20;64.80;;;;;;5014405;28;20825;-69
2022/10/16 10:11:50;;;;;;;0.40;0.40;;;27.50;66.90;;;;;;5013459;28;20418;-68
2022/10/16 10:14:30;;;;;;;0.40;0.40;;;27.10;69.00;;;;;;5015532;28;20484;-69
2022/10/16 10:17:13;;;;;;;0.40;0.40;;;26.90;71.10;;;;;;5013848;28;20890;-69
2022/10/16 10:19:40;;;;;;;0.40;0.40;;;27.10;69.50;;;;;;5013464;28;20824;-71
2022/10/16 10:22:29;;;;;;;0.50;0.43;;;27.50;68.30;;;;;;5015038;28;20782;-69
2022/10/16 10:25:13;;;;;;;0.50;0.40;;;28.20;66.90;;;;;;5012106;28;20822;-72
2022/10/16 10:27:47;;;;;;;0.30;0.30;;;29.20;62.50;;;;;;5015961;28;20441;-71
2022/10/16 10:30:22;;;;;;;0.40;0.40;;;30.00;56.30;;;;;;5015504;28;20772;-70
2022/10/16 10:33:17;;;;;;;0.30;0.30;;;30.60;52.50;;;;;;5015859;28;20405;-72
2022/10/16 10:35:48;;;;;;;0.40;0.40;;;31.00;55.30;;;;;;5014429;28;20427;-69
2022/10/16 10:38:31;;;;;;;0.53;0.50;;;30.90;47.70;;;;;;5013048;28;20458;-71
2022/10/16 10:41:14;;;;;;;0.50;0.50;;;30.60;48.20;;;;;;5015544;28;20460;-71
2022/10/16 10:43:44;;;;;;;0.40;0.40;;;30.10;50.30;;;;;;5016030;28;20410;-71
2022/10/16 10:46:22;;;;;;;0.40;0.40;;;29.50;50.10;;;;;;5015274;28;20914;-70
2022/10/16 10:49:12;;;;;;;0.50;0.50;;;29.00;53.70;;;;;;5016016;28;20419;-71
2022/10/16 10:51:53;;;;;;;0.30;0.30;;;28.30;52.50;;;;;;5015946;28;20406;-71
2022/10/16 10:54:25;;;;;;;0.40;0.40;;;27.80;61.20;;;;;;5015826;28;20398;-68
2022/10/16 10:56:59;;;;;;;0.70;0.60;;;27.30;57.40;;;;;;5015677;28;20454;-68
2022/10/16 10:59:59;;;;;;;0.50;0.50;;;26.60;58.90;;;;;;5015226;28;20456;-67
2022/10/16 11:02:45;;;;;;;0.40;0.40;;;26.10;55.50;;;;;;5015652;28;20402;-70
2022/10/16 11:05:19;;;;;;;1.27;0.50;;;25.80;61.80;;;;;;5015318;28;20765;-70
2022/10/16 11:07:54;;;;;;;0.40;0.40;;;25.50;60.40;;;;;;5015421;28;20429;-71
2022/10/16 11:10:28;;;;;;;0.50;0.50;;;25.30;57.50;;;;;;5015212;28;20429;-71
2022/10/16 11:13:02;;;;;;;0.40;0.40;;;25.20;58.40;;;;;;5015172;28;20407;-70
2022/10/16 11:15:34;;;;;;;0.40;0.40;;;25.10;61.60;;;;;;5015653;28;20417;-69
2022/10/16 11:18:10;;;;;;;0.50;0.50;;;24.90;57.80;;;;;;5015006;28;20862;-71
2022/10/16 11:20:48;;;;;;;0.40;0.40;;;24.70;62.50;;;;;;5014968;28;20750;-73
2022/10/16 11:23:24;;;;;;;0.40;0.40;;;24.50;60.90;;;;;;5015281;28;20452;-71
2022/10/16 11:25:51;;;;;;;0.60;0.43;;;24.20;68.90;;;;;;5015244;28;20450;-71
2022/10/16 11:28:27;;;;;;;0.40;0.40;;;24.10;59.40;;;;;;5014724;28;20433;-73
2022/10/16 11:31:10;;;;;;;0.40;0.40;;;24.10;72.90;;;;;;5014779;28;20423;-72
2022/10/16 11:34:07;;;;;;;0.40;0.40;;;24.00;63.30;;;;;;5015122;28;20406;-71
2022/10/16 11:36:40;;;;;;;0.40;0.40;;;23.90;64.90;;;;;;5005265;28;20466;-73
2022/10/16 11:39:26;;;;;;;0.40;0.40;;;23.80;68.00;;;;;;5014695;28;20478;-71
2022/10/16 11:41:59;;;;;;;0.40;0.40;;;23.80;69.00;;;;;;5015076;28;20377;-71
2022/10/16 11:44:57;;;;;;;0.40;0.40;;;23.90;71.70;;;;;;5015034;28;20410;-72
2022/10/16 11:48:04;;;;;;;0.77;0.77;;;23.90;73.70;;;;;;5014419;28;20500;-70
2022/10/16 11:50:36;;;;;;;0.40;0.40;;;23.80;71.10;;;;;;5005841;28;20451;-72
2022/10/16 11:53:32;;;;;;;0.50;0.50;;;23.80;72.00;;;;;;5013942;28;20818;-71
2022/10/16 11:55:58;;;;;;;0.50;0.50;;;23.80;67.80;;;;;;5014455;28;20417;-73
2022/10/16 11:58:34;;;;;;;0.60;0.60;;;23.70;66.80;;;;;;5013829;28;20540;-70
2022/10/16 12:01:09;;;;;;;0.37;0.37;;;23.60;63.40;;;;;;5014255;28;20171;-71
2022/10/16 12:03:54;;;;;;;0.63;0.50;;;23.70;65.70;;;;;;5014746;28;20873;-71
2022/10/16 12:06:33;;;;;;;0.30;0.30;;;23.70;66.20;;;;;;5014507;28;20381;-73
2022/10/16 12:09:00;;;;;;;0.70;0.50;;;23.70;64.10;;;;;;5014253;28;20394;-73
2022/10/16 12:11:29;;;;;;;0.60;0.60;;;23.70;63.70;;;;;;5014407;28;20421;-72
2022/10/16 12:14:12;;;;;;;0.50;0.50;;;23.80;65.90;;;;;;5013255;28;20457;-69
2022/10/16 12:16:58;;;;;;;0.77;0.50;;;23.60;72.00;;;;;;5013716;28;20552;-71
2022/10/16 12:19:28;;;;;;;0.40;0.40;;;23.40;67.80;;;;;;5014060;28;20896;-70
2022/10/16 12:22:03;;;;;;;0.63;0.60;;;23.20;69.30;;;;;;5014463;28;20399;-73
2022/10/16 12:24:35;;;;;;;0.30;0.30;;;23.00;79.10;;;;;;5014598;28;20436;-72
2022/10/16 12:27:02;;;;;;;0.30;0.30;;;22.90;80.00;;;;;;5013855;28;20430;-72
2022/10/16 12:29:40;;;;;;;0.30;0.30;;;22.70;72.60;;;;;;5013720;28;20922;-71
2022/10/16 12:32:39;;;;;;;0.40;0.40;;;22.60;72.60;;;;;;5014276;28;20396;-72
2022/10/16 12:35:17;;;;;;;0.57;0.50;;;22.50;73.00;;;;;;4991370;28;20429;-71
2022/10/16 12:37:45;;;;;;;0.30;0.30;;;22.30;74.50;;;;;;5014320;28;20997;-70
2022/10/16 12:40:37;;;;;;;0.47;0.47;;;22.20;73.10;;;;;;5013952;28;20484;-70
2022/10/16 12:43:25;;;;;;;0.37;0.37;;;22.20;73.10;;;;;;5012523;28;20911;-71
2022/10/16 12:46:09;;;;;;;0.30;0.30;;;22.00;79.10;;;;;;5012169;28;20442;-69
2022/10/16 12:48:36;;;;;;;0.57;0.57;;;21.90;76.40;;;;;;5013641;28;20487;-70
2022/10/16 12:51:21;;;;;;;0.30;0.30;;;21.70;75.30;;;;;;5013605;28;20416;-72
2022/10/16 12:54:03;;;;;;;0.60;0.60;;;21.60;80.10;;;;;;5012625;28;20425;-71
2022/10/16 12:56:53;;;;;;;0.30;0.30;;;21.60;78.00;;;;;;5013854;28;20428;-70
2022/10/16 12:59:40;;;;;;;0.50;0.50;;;21.70;76.30;;;;;;5013861;28;20393;-70
2022/10/16 13:02:41;;;;;;;0.50;0.50;;;21.70;72.30;;;;;;5014029;28;20431;-72
2022/10/16 13:05:31;;;;;;;0.37;0.37;;;21.70;70.10;;;;;;5013805;28;20419;-72
2022/10/16 13:08:35;;;;;;;0.50;0.50;;;21.80;72.00;;;;;;5014112;28;20957;-72
2022/10/16 13:11:15;;;;;;;0.40;0.40;;;21.80;75.00;;;;;;4976346;28;20410;-70